Time;durP1;ratioP1;P1;durP2;ratioP2;P2;SDS_P1;SDS_P2;PMS_P1;PMS_P2;Temp;Humidity;BMP_temperature;BMP_pressure;BME280_temperature;BME280_humidity;BME280_pressure;Samples;Min_cycle;Max_cycle;Signal;HPM_P1;HPM_P2
2021/01/18 00:01:50;;;;;;;17.33;3.10;;;;;;;;;;4954841;28;20037;-62
2021/01/18 00:07:58;;;;;;;6.93;1.80;;;;;;;;;;4990218;28;20043;-61
2021/01/18 00:10:24;;;;;;;7.30;1.92;;;;;;;;;;4981319;28;20033;-61
2021/01/18 00:12:55;;;;;;;11.25;2.50;;;;;;;;;;4971120;28;20026;-61
2021/01/18 00:15:24;;;;;;;19.00;2.80;;;;;;;;;;4990588;28;20369;-61
2021/01/18 00:17:50;;;;;;;8.32;1.48;;;;;;;;;;4989223;28;20289;-62
2021/01/18 00:20:17;;;;;;;13.05;2.55;;;;;;;;;;4992115;28;20065;-62
2021/01/18 00:22:43;;;;;;;12.65;2.50;;;;;;;;;;4980026;28;20029;-61
2021/01/18 00:25:10;;;;;;;14.43;2.45;;;;;;;;;;4989499;28;20095;-62
2021/01/18 00:27:36;;;;;;;16.38;2.13;;;;;;;;;;4975010;28;20029;-61
2021/01/18 00:30:06;;;;;;;11.20;2.20;;;;;;;;;;4995164;28;20655;-62
2021/01/18 00:32:32;;;;;;;7.65;1.80;;;;;;;;;;4992784;28;20018;-61
2021/01/18 00:34:58;;;;;;;14.60;1.75;;;;;;;;;;4984418;28;20455;-62
2021/01/18 00:37:23;;;;;;;18.40;2.80;;;;;;;;;;4976110;28;20037;-62
2021/01/18 00:39:49;;;;;;;17.67;2.22;;;;;;;;;;4966993;28;20156;-62
2021/01/18 00:42:18;;;;;;;17.70;2.47;;;;;;;;;;4993305;28;20073;-60
2021/01/18 00:44:56;;;;;;;9.57;2.80;;;;;;;;;;4989260;28;20306;-61
2021/01/18 00:47:22;;;;;;;15.65;2.55;;;;;;;;;;4978778;28;20161;-62
2021/01/18 00:49:47;;;;;;;8.18;1.98;;;;;;;;;;4995391;28;20030;-62
2021/01/18 00:52:15;;;;;;;12.48;1.92;;;;;;;;;;4976515;28;20141;-61
2021/01/18 00:54:41;;;;;;;5.97;1.38;;;;;;;;;;4998430;28;20197;-61
2021/01/18 00:57:10;;;;;;;13.18;2.15;;;;;;;;;;4996958;28;20042;-62
2021/01/18 00:59:35;;;;;;;13.13;1.70;;;;;;;;;;4980986;28;20034;-62
2021/01/18 01:02:01;;;;;;;10.48;1.83;;;;;;;;;;4994205;28;20070;-60
2021/01/18 01:04:26;;;;;;;7.43;1.70;;;;;;;;;;4984368;28;20041;-61
2021/01/18 01:06:54;;;;;;;7.20;2.30;;;;;;;;;;4975626;28;20068;-61
2021/01/18 01:09:22;;;;;;;9.55;1.77;;;;;;;;;;4999589;28;20084;-61
2021/01/18 01:11:48;;;;;;;14.25;1.70;;;;;;;;;;4993634;28;20565;-62
2021/01/18 01:14:13;;;;;;;10.38;2.03;;;;;;;;;;4979202;28;20479;-62
2021/01/18 01:16:44;;;;;;;6.75;2.22;;;;;;;;;;4994733;28;21458;-62
2021/01/18 01:19:09;;;;;;;14.20;2.03;;;;;;;;;;4996229;28;20045;-61
2021/01/18 01:21:37;;;;;;;4.95;1.63;;;;;;;;;;4997691;28;20029;-61
2021/01/18 01:24:08;;;;;;;8.43;2.70;;;;;;;;;;4997404;28;20397;-62
2021/01/18 01:26:33;;;;;;;5.88;1.48;;;;;;;;;;4997291;28;20033;-62
2021/01/18 01:29:02;;;;;;;6.70;1.65;;;;;;;;;;4983307;28;20060;-62
2021/01/18 01:31:30;;;;;;;11.50;2.38;;;;;;;;;;4985545;28;20031;-61
2021/01/18 01:33:58;;;;;;;10.02;2.10;;;;;;;;;;4971326;28;20046;-62
2021/01/18 01:36:26;;;;;;;10.00;1.52;;;;;;;;;;4992123;28;20181;-62
2021/01/18 01:38:54;;;;;;;14.52;2.30;;;;;;;;;;4990747;28;20041;-62
2021/01/18 01:41:20;;;;;;;8.60;2.03;;;;;;;;;;4994361;28;20037;-61
2021/01/18 01:43:46;;;;;;;10.52;1.45;;;;;;;;;;4990592;28;20030;-62
2021/01/18 01:46:12;;;;;;;14.88;2.25;;;;;;;;;;4997440;28;20635;-62
2021/01/18 01:48:37;;;;;;;6.15;1.88;;;;;;;;;;4996964;28;20033;-63
2021/01/18 01:51:03;;;;;;;10.82;2.33;;;;;;;;;;4994156;28;20022;-61
2021/01/18 01:53:33;;;;;;;21.33;2.78;;;;;;;;;;4996838;28;20277;-62
2021/01/18 01:55:59;;;;;;;12.50;1.70;;;;;;;;;;4993401;28;20076;-63
2021/01/18 01:58:27;;;;;;;12.85;2.00;;;;;;;;;;4982866;28;20129;-62
2021/01/18 02:00:54;;;;;;;7.05;1.55;;;;;;;;;;4995705;28;20096;-62
2021/01/18 02:03:20;;;;;;;7.10;1.67;;;;;;;;;;4971797;28;20064;-61
2021/01/18 02:05:53;;;;;;;10.20;1.90;;;;;;;;;;4993252;28;20273;-63
2021/01/18 02:08:21;;;;;;;5.55;1.50;;;;;;;;;;4982007;28;20044;-63
2021/01/18 02:10:49;;;;;;;6.60;1.15;;;;;;;;;;4986096;28;20151;-62
2021/01/18 02:13:17;;;;;;;10.23;2.58;;;;;;;;;;4995682;28;20041;-63
2021/01/18 02:15:53;;;;;;;9.70;2.10;;;;;;;;;;4982116;28;20113;-63
2021/01/18 02:18:36;;;;;;;10.57;1.52;;;;;;;;;;4980593;28;20044;-63
2021/01/18 02:21:20;;;;;;;3.17;1.45;;;;;;;;;;4984790;28;20046;-62
2021/01/18 02:23:46;;;;;;;9.88;1.60;;;;;;;;;;4984008;28;20033;-62
2021/01/18 02:26:14;;;;;;;6.13;1.98;;;;;;;;;;4994725;28;20107;-61
2021/01/18 02:29:09;;;;;;;8.93;2.53;;;;;;;;;;4995038;28;20177;-65
2021/01/18 02:31:35;;;;;;;11.48;2.00;;;;;;;;;;4973944;28;20520;-63
2021/01/18 02:34:19;;;;;;;6.88;1.50;;;;;;;;;;4980714;28;20151;-62
2021/01/18 02:37:01;;;;;;;14.73;2.63;;;;;;;;;;4976855;28;20062;-63
2021/01/18 02:39:35;;;;;;;4.32;1.40;;;;;;;;;;4975099;28;20515;-63
2021/01/18 02:42:10;;;;;;;4.77;1.00;;;;;;;;;;4976193;28;20025;-63
2021/01/18 02:44:38;;;;;;;7.70;1.70;;;;;;;;;;4976731;28;21163;-61
2021/01/18 02:47:04;;;;;;;7.53;2.05;;;;;;;;;;4974876;28;20385;-62
2021/01/18 02:49:32;;;;;;;9.45;1.52;;;;;;;;;;4962463;28;20108;-64
2021/01/18 02:52:08;;;;;;;11.82;1.75;;;;;;;;;;4957230;28;20025;-62
2021/01/18 02:54:33;;;;;;;13.95;2.13;;;;;;;;;;4976126;28;20030;-64
2021/01/18 02:56:59;;;;;;;10.32;2.15;;;;;;;;;;4973230;28;20091;-61
2021/01/18 02:59:29;;;;;;;17.42;1.95;;;;;;;;;;4964193;28;20046;-62
2021/01/18 03:02:16;;;;;;;11.05;1.80;;;;;;;;;;4962219;28;20033;-61
2021/01/18 03:05:11;;;;;;;15.35;2.00;;;;;;;;;;4975694;28;20190;-61
2021/01/18 03:07:55;;;;;;;3.70;1.27;;;;;;;;;;4969632;28;20026;-62
2021/01/18 03:10:39;;;;;;;4.93;1.60;;;;;;;;;;4957903;28;20045;-62
2021/01/18 03:13:10;;;;;;;5.40;1.30;;;;;;;;;;4972547;28;20303;-64
2021/01/18 03:15:40;;;;;;;5.57;1.38;;;;;;;;;;4957595;28;20485;-63
2021/01/18 03:18:09;;;;;;;11.98;2.03;;;;;;;;;;4959640;28;20025;-64
2021/01/18 03:20:35;;;;;;;9.07;2.05;;;;;;;;;;4976168;28;20531;-62
2021/01/18 03:23:02;;;;;;;6.72;1.83;;;;;;;;;;4955193;28;20165;-63
2021/01/18 03:25:27;;;;;;;3.75;1.40;;;;;;;;;;4974842;28;20756;-62
2021/01/18 03:27:57;;;;;;;6.43;1.60;;;;;;;;;;4931698;28;20041;-64
2021/01/18 03:30:23;;;;;;;9.20;1.65;;;;;;;;;;4952395;28;20037;-63
2021/01/18 03:32:55;;;;;;;11.50;2.35;;;;;;;;;;4965032;28;20378;-65
2021/01/18 03:35:28;;;;;;;8.02;2.38;;;;;;;;;;4992411;28;20873;-64
2021/01/18 03:37:59;;;;;;;6.82;1.35;;;;;;;;;;4999826;28;20442;-62
2021/01/18 03:40:28;;;;;;;8.82;1.50;;;;;;;;;;4992221;28;20487;-62
2021/01/18 03:43:00;;;;;;;3.30;1.23;;;;;;;;;;4991746;28;20037;-62
2021/01/18 03:45:29;;;;;;;8.05;1.60;;;;;;;;;;4991906;28;20485;-63
2021/01/18 03:47:54;;;;;;;1.90;1.23;;;;;;;;;;4976892;28;20095;-62
2021/01/18 03:50:20;;;;;;;5.97;1.73;;;;;;;;;;4982906;28;20238;-63
2021/01/18 03:52:49;;;;;;;4.13;1.05;;;;;;;;;;4974254;28;20113;-64
2021/01/18 03:55:17;;;;;;;9.07;1.85;;;;;;;;;;4991206;28;20030;-63
2021/01/18 03:57:48;;;;;;;4.90;1.52;;;;;;;;;;4988046;28;20037;-63
2021/01/18 04:00:15;;;;;;;5.97;1.65;;;;;;;;;;4991872;28;20481;-62
2021/01/18 04:02:41;;;;;;;10.55;2.08;;;;;;;;;;4993936;28;20439;-62
2021/01/18 04:05:07;;;;;;;15.68;2.63;;;;;;;;;;4972849;28;20120;-65
2021/01/18 04:07:32;;;;;;;14.25;2.10;;;;;;;;;;4997593;28;20437;-62
2021/01/18 04:09:58;;;;;;;10.13;1.98;;;;;;;;;;4983635;28;20049;-61
2021/01/18 04:12:24;;;;;;;14.73;2.35;;;;;;;;;;4997260;28;20036;-63
2021/01/18 04:14:51;;;;;;;6.07;1.55;;;;;;;;;;4995611;28;20029;-64
2021/01/18 04:17:20;;;;;;;12.32;2.30;;;;;;;;;;4996811;28;20121;-63
2021/01/18 04:19:46;;;;;;;10.23;1.98;;;;;;;;;;4985945;28;20160;-63
2021/01/18 04:22:19;;;;;;;9.85;2.90;;;;;;;;;;4996890;28;20679;-63
2021/01/18 04:24:44;;;;;;;12.35;2.40;;;;;;;;;;4997550;28;20044;-62
2021/01/18 04:27:10;;;;;;;16.98;3.55;;;;;;;;;;4993354;28;20042;-63
2021/01/18 04:29:35;;;;;;;13.43;2.28;;;;;;;;;;4974840;28;20049;-61
2021/01/18 04:32:05;;;;;;;13.75;1.98;;;;;;;;;;4996405;28;20029;-62
2021/01/18 04:34:34;;;;;;;8.20;1.90;;;;;;;;;;4961034;28;20050;-63
2021/01/18 04:37:00;;;;;;;16.85;2.03;;;;;;;;;;4976695;28;20031;-61
2021/01/18 04:39:30;;;;;;;10.38;2.47;;;;;;;;;;4977289;28;20499;-61
2021/01/18 04:41:58;;;;;;;14.85;2.10;;;;;;;;;;4976456;28;20064;-61
2021/01/18 04:44:30;;;;;;;15.27;3.22;;;;;;;;;;4975431;28;20092;-61
2021/01/18 04:46:59;;;;;;;7.53;2.92;;;;;;;;;;4975394;28;20130;-62
2021/01/18 04:49:24;;;;;;;15.55;2.30;;;;;;;;;;4964359;28;20109;-61
2021/01/18 04:51:50;;;;;;;10.93;3.13;;;;;;;;;;4976237;28;20060;-61
2021/01/18 04:54:26;;;;;;;20.17;2.33;;;;;;;;;;4975738;28;20524;-61
2021/01/18 04:57:08;;;;;;;10.43;2.38;;;;;;;;;;4976095;28;20125;-62
2021/01/18 04:59:43;;;;;;;12.93;2.13;;;;;;;;;;4978172;28;20048;-63
2021/01/18 05:02:12;;;;;;;20.83;2.83;;;;;;;;;;4975075;28;20034;-62
2021/01/18 05:04:39;;;;;;;9.80;2.72;;;;;;;;;;4964137;28;20034;-63
2021/01/18 05:07:26;;;;;;;11.32;2.00;;;;;;;;;;4962097;28;20088;-62
2021/01/18 05:09:58;;;;;;;14.38;2.15;;;;;;;;;;4967846;28;20933;-63
2021/01/18 05:12:26;;;;;;;11.88;2.47;;;;;;;;;;4967874;28;20144;-63
2021/01/18 05:14:51;;;;;;;14.85;3.63;;;;;;;;;;4962133;28;20501;-62
2021/01/18 05:17:30;;;;;;;6.38;2.05;;;;;;;;;;4975121;28;20030;-62
2021/01/18 05:20:00;;;;;;;9.45;2.85;;;;;;;;;;4976751;28;20074;-62
2021/01/18 05:22:26;;;;;;;7.40;2.80;;;;;;;;;;4968188;28;20117;-63
2021/01/18 05:24:55;;;;;;;8.52;2.40;;;;;;;;;;4974579;28;20042;-62
2021/01/18 05:27:21;;;;;;;5.63;2.13;;;;;;;;;;4962727;28;20787;-62
2021/01/18 05:29:53;;;;;;;11.60;2.55;;;;;;;;;;4976403;28;20085;-63
2021/01/18 05:32:22;;;;;;;20.95;2.53;;;;;;;;;;4962508;28;20080;-63
2021/01/18 05:34:50;;;;;;;9.35;2.38;;;;;;;;;;4996104;28;20069;-63
2021/01/18 05:37:18;;;;;;;6.97;1.88;;;;;;;;;;4993476;28;20112;-62
2021/01/18 05:39:46;;;;;;;9.88;2.67;;;;;;;;;;4993633;28;20048;-62
2021/01/18 05:42:19;;;;;;;10.65;3.05;;;;;;;;;;4987752;28;20037;-65
2021/01/18 05:44:45;;;;;;;9.70;2.83;;;;;;;;;;4994296;28;20065;-64
2021/01/18 05:47:14;;;;;;;18.00;2.83;;;;;;;;;;4991775;28;20120;-62
2021/01/18 05:49:44;;;;;;;10.73;3.90;;;;;;;;;;4987562;28;20049;-63
2021/01/18 05:52:24;;;;;;;14.68;3.75;;;;;;;;;;4984458;28;20449;-64
2021/01/18 05:54:52;;;;;;;7.20;2.33;;;;;;;;;;4978079;28;20025;-63
2021/01/18 05:57:18;;;;;;;7.22;3.40;;;;;;;;;;4994471;28;20072;-63
2021/01/18 05:59:44;;;;;;;12.63;3.70;;;;;;;;;;4993796;28;20036;-64
2021/01/18 06:02:23;;;;;;;6.68;2.72;;;;;;;;;;4996225;28;20201;-63
2021/01/18 06:04:51;;;;;;;18.13;3.53;;;;;;;;;;4995221;28;20120;-62
2021/01/18 06:07:21;;;;;;;18.83;4.03;;;;;;;;;;4994030;28;20628;-64
2021/01/18 06:09:47;;;;;;;17.02;5.20;;;;;;;;;;4992114;28;20116;-63
2021/01/18 06:12:26;;;;;;;13.73;4.72;;;;;;;;;;4994885;28;20029;-62
2021/01/18 06:15:10;;;;;;;14.50;4.28;;;;;;;;;;4989645;28;20756;-63
2021/01/18 06:17:43;;;;;;;18.30;4.73;;;;;;;;;;4976206;28;20369;-64
2021/01/18 06:20:09;;;;;;;14.68;3.72;;;;;;;;;;4995626;28;20378;-63
2021/01/18 06:22:35;;;;;;;13.45;2.95;;;;;;;;;;4994839;28;20032;-63
2021/01/18 06:25:10;;;;;;;15.55;4.43;;;;;;;;;;4991820;28;20049;-63
2021/01/18 06:27:36;;;;;;;20.58;5.13;;;;;;;;;;4989298;28;20465;-63
2021/01/18 06:30:02;;;;;;;11.57;4.85;;;;;;;;;;4978251;28;20048;-63
2021/01/18 06:32:31;;;;;;;8.65;4.85;;;;;;;;;;4993238;28;20031;-63
2021/01/18 06:34:59;;;;;;;10.63;3.55;;;;;;;;;;4996659;28;20041;-65
2021/01/18 06:37:35;;;;;;;11.80;4.60;;;;;;;;;;4977839;28;20557;-63
2021/01/18 06:40:06;;;;;;;9.25;4.55;;;;;;;;;;4982405;28;20145;-63
2021/01/18 06:42:35;;;;;;;15.13;4.85;;;;;;;;;;4993985;28;20451;-65
2021/01/18 06:45:00;;;;;;;13.88;4.88;;;;;;;;;;4962082;28;20030;-64
2021/01/18 06:47:30;;;;;;;15.57;4.47;;;;;;;;;;4982714;28;20084;-63
2021/01/18 06:50:02;;;;;;;16.08;3.70;;;;;;;;;;4993825;28;20026;-63
2021/01/18 06:52:30;;;;;;;20.95;4.45;;;;;;;;;;4996007;28;20221;-63
2021/01/18 06:54:58;;;;;;;14.77;4.03;;;;;;;;;;4994234;28;20037;-63
2021/01/18 06:57:32;;;;;;;9.70;3.53;;;;;;;;;;4995012;28;20543;-63
2021/01/18 07:00:01;;;;;;;8.75;3.45;;;;;;;;;;4978030;28;20026;-63
2021/01/18 07:02:35;;;;;;;16.25;3.90;;;;;;;;;;4993445;28;20037;-64
2021/01/18 07:05:09;;;;;;;16.00;4.15;;;;;;;;;;4995327;28;20682;-65
2021/01/18 07:07:36;;;;;;;19.48;3.97;;;;;;;;;;4989346;28;20037;-64
2021/01/18 07:10:05;;;;;;;16.48;5.32;;;;;;;;;;4991669;28;20444;-63
2021/01/18 07:12:31;;;;;;;10.77;4.65;;;;;;;;;;4973176;28;20120;-63
2021/01/18 07:15:07;;;;;;;33.55;5.72;;;;;;;;;;4982589;28;20446;-63
2021/01/18 07:17:43;;;;;;;14.88;5.93;;;;;;;;;;4995633;28;20034;-63
2021/01/18 07:20:22;;;;;;;20.48;7.00;;;;;;;;;;4993601;28;20426;-64
2021/01/18 07:23:08;;;;;;;18.63;6.55;;;;;;;;;;4975101;28;20029;-63
2021/01/18 07:25:38;;;;;;;12.95;5.25;;;;;;;;;;4973112;28;20033;-65
2021/01/18 07:28:06;;;;;;;18.75;5.00;;;;;;;;;;4992856;28;20045;-64
2021/01/18 07:30:36;;;;;;;20.90;4.82;;;;;;;;;;4989813;28;20034;-65
2021/01/18 07:33:05;;;;;;;15.75;5.07;;;;;;;;;;4991708;28;20045;-64
2021/01/18 07:35:35;;;;;;;20.02;4.82;;;;;;;;;;4996295;28;20026;-64
2021/01/18 07:38:17;;;;;;;19.85;5.50;;;;;;;;;;4994948;28;20017;-65
2021/01/18 07:41:03;;;;;;;16.92;4.63;;;;;;;;;;4994439;28;20029;-63
2021/01/18 07:43:48;;;;;;;12.77;4.32;;;;;;;;;;4998756;28;20041;-66
2021/01/18 07:46:25;;;;;;;25.13;6.65;;;;;;;;;;4999059;28;20489;-64
2021/01/18 07:48:58;;;;;;;23.67;7.03;;;;;;;;;;4997382;28;20025;-64
2021/01/18 07:51:32;;;;;;;20.33;6.55;;;;;;;;;;4996812;28;22171;-65
2021/01/18 07:54:02;;;;;;;20.10;5.70;;;;;;;;;;4979405;28;20492;-63
2021/01/18 07:56:31;;;;;;;23.05;7.40;;;;;;;;;;4996783;28;20038;-65
2021/01/18 07:59:01;;;;;;;24.13;6.78;;;;;;;;;;4987361;28;20053;-63
2021/01/18 08:01:30;;;;;;;19.88;6.07;;;;;;;;;;4995747;28;20033;-63
2021/01/18 08:04:14;;;;;;;10.73;5.05;;;;;;;;;;4995874;28;20085;-63
2021/01/18 08:06:59;;;;;;;16.90;6.70;;;;;;;;;;4998330;28;20040;-63
2021/01/18 08:09:28;;;;;;;14.93;5.82;;;;;;;;;;4999100;28;20495;-62
2021/01/18 08:11:53;;;;;;;28.38;6.85;;;;;;;;;;4996829;28;20030;-64
2021/01/18 08:14:21;;;;;;;25.63;6.65;;;;;;;;;;4981351;28;20413;-62
2021/01/18 08:16:49;;;;;;;21.42;6.88;;;;;;;;;;4993158;28;20096;-64
2021/01/18 08:19:26;;;;;;;15.98;7.65;;;;;;;;;;4997774;28;20181;-63
2021/01/18 08:21:55;;;;;;;18.92;6.32;;;;;;;;;;4992593;28;20026;-63
2021/01/18 08:24:23;;;;;;;17.45;6.95;;;;;;;;;;4994055;28;20084;-64
2021/01/18 08:26:49;;;;;;;17.50;6.10;;;;;;;;;;4981904;28;20034;-63
2021/01/18 08:29:35;;;;;;;21.27;7.35;;;;;;;;;;4998966;28;20120;-63
2021/01/18 08:32:20;;;;;;;22.02;6.35;;;;;;;;;;4977313;28;20039;-64
2021/01/18 08:34:50;;;;;;;18.75;6.78;;;;;;;;;;4963621;28;20406;-62
2021/01/18 08:37:15;;;;;;;18.60;6.88;;;;;;;;;;4977945;28;20100;-64
2021/01/18 08:39:50;;;;;;;21.70;7.10;;;;;;;;;;4980053;28;20045;-63
2021/01/18 08:42:36;;;;;;;21.80;7.72;;;;;;;;;;4976747;28;20034;-64
2021/01/18 08:45:18;;;;;;;26.90;8.05;;;;;;;;;;4980299;28;20236;-64
2021/01/18 08:47:51;;;;;;;25.02;6.88;;;;;;;;;;4974854;28;20674;-64
2021/01/18 08:50:23;;;;;;;32.42;7.50;;;;;;;;;;4962869;28;20433;-63
2021/01/18 08:52:53;;;;;;;21.77;6.28;;;;;;;;;;4978870;28;20040;-64
2021/01/18 08:55:31;;;;;;;28.63;6.80;;;;;;;;;;4979338;28;20031;-64
2021/01/18 08:58:03;;;;;;;22.30;5.70;;;;;;;;;;4980721;28;20091;-62
2021/01/18 09:00:47;;;;;;;18.92;5.22;;;;;;;;;;4965247;28;20505;-62
2021/01/18 09:03:19;;;;;;;20.20;5.87;;;;;;;;;;4981111;28;20042;-62
2021/01/18 09:05:45;;;;;;;22.05;4.82;;;;;;;;;;4978420;28;21716;-64
2021/01/18 09:08:13;;;;;;;16.27;4.82;;;;;;;;;;4979847;28;20370;-64
2021/01/18 09:10:55;;;;;;;16.38;3.95;;;;;;;;;;4976409;28;20627;-65
2021/01/18 09:13:22;;;;;;;18.83;4.68;;;;;;;;;;4978146;28;20193;-64
2021/01/18 09:15:51;;;;;;;28.85;4.53;;;;;;;;;;4962132;28;20034;-63
2021/01/18 09:18:17;;;;;;;10.27;4.03;;;;;;;;;;4978905;28;20021;-63
2021/01/18 09:20:44;;;;;;;18.13;4.57;;;;;;;;;;4960893;28;20046;-64
2021/01/18 09:23:11;;;;;;;19.73;4.68;;;;;;;;;;4980407;28;20030;-63
2021/01/18 09:25:39;;;;;;;15.05;3.88;;;;;;;;;;4976920;28;20036;-64
2021/01/18 09:28:06;;;;;;;14.30;4.55;;;;;;;;;;4963491;28;20049;-63
2021/01/18 09:30:36;;;;;;;17.95;4.25;;;;;;;;;;4977106;28;20036;-63
2021/01/18 09:33:05;;;;;;;21.38;3.72;;;;;;;;;;4983684;28;20202;-63
2021/01/18 09:35:32;;;;;;;21.63;4.10;;;;;;;;;;4996346;28;20090;-64
2021/01/18 09:37:58;;;;;;;13.02;3.33;;;;;;;;;;4997769;28;20030;-64
2021/01/18 09:40:25;;;;;;;17.88;3.50;;;;;;;;;;4981679;28;20071;-65
2021/01/18 09:42:51;;;;;;;14.73;3.55;;;;;;;;;;4992244;28;20328;-64
2021/01/18 09:45:17;;;;;;;13.30;3.17;;;;;;;;;;4977081;28;20169;-65
2021/01/18 09:47:46;;;;;;;14.80;3.33;;;;;;;;;;4997588;28;20091;-64
2021/01/18 09:50:12;;;;;;;21.08;3.50;;;;;;;;;;4997372;28;20049;-63
2021/01/18 09:52:43;;;;;;;12.60;4.50;;;;;;;;;;4993837;28;20599;-64
2021/01/18 09:55:18;;;;;;;18.83;3.67;;;;;;;;;;4993486;28;20223;-63
2021/01/18 09:57:47;;;;;;;14.85;3.22;;;;;;;;;;4992365;28;20053;-64
2021/01/18 10:00:14;;;;;;;11.68;2.85;;;;;;;;;;4997922;28;20124;-64
2021/01/18 10:02:43;;;;;;;14.18;3.80;;;;;;;;;;4996109;28;20037;-64
2021/01/18 10:05:10;;;;;;;11.88;3.25;;;;;;;;;;4998479;28;20454;-63
2021/01/18 10:07:41;;;;;;;15.32;3.30;;;;;;;;;;4977221;28;20092;-63
2021/01/18 10:10:08;;;;;;;14.55;3.60;;;;;;;;;;4997178;28;20036;-63
2021/01/18 10:12:37;;;;;;;20.50;3.08;;;;;;;;;;4999054;28;20022;-63
2021/01/18 10:15:03;;;;;;;13.07;2.75;;;;;;;;;;4981314;28;20556;-64
2021/01/18 10:17:31;;;;;;;17.95;3.50;;;;;;;;;;4991238;28;20318;-64
2021/01/18 10:20:12;;;;;;;18.42;3.30;;;;;;;;;;4977507;28;20696;-62
2021/01/18 10:22:37;;;;;;;17.20;3.08;;;;;;;;;;4997664;28;20642;-64
2021/01/18 10:25:12;;;;;;;13.80;3.13;;;;;;;;;;4995167;28;20033;-63
2021/01/18 10:27:47;;;;;;;15.23;2.03;;;;;;;;;;4994807;28;20140;-63
2021/01/18 10:30:18;;;;;;;15.75;3.53;;;;;;;;;;4996338;28;20211;-63
2021/01/18 10:32:44;;;;;;;11.13;3.13;;;;;;;;;;4973422;28;20136;-64
2021/01/18 10:35:32;;;;;;;12.02;2.95;;;;;;;;;;5000067;28;20041;-63
2021/01/18 10:38:00;;;;;;;;;;;;;;;;;;4976812;28;20441;-63
2021/01/18 10:40:25;;;;;;;25.83;3.42;;;;;;;;;;4993303;28;20460;-62
2021/01/18 10:43:02;;;;;;;11.27;2.47;;;;;;;;;;4996043;28;20120;-62
2021/01/18 10:45:28;;;;;;;17.27;2.67;;;;;;;;;;4997263;28;20389;-63
2021/01/18 10:47:55;;;;;;;19.92;2.40;;;;;;;;;;4980485;28;20109;-63
2021/01/18 10:50:28;;;;;;;18.25;2.28;;;;;;;;;;4994653;28;20040;-63
2021/01/18 10:53:05;;;;;;;11.80;2.25;;;;;;;;;;4980908;28;20025;-62
2021/01/18 10:55:33;;;;;;;14.73;3.05;;;;;;;;;;4996016;28;20022;-64
2021/01/18 10:57:58;;;;;;;14.55;2.65;;;;;;;;;;4991120;28;20481;-62
2021/01/18 11:00:29;;;;;;;16.98;3.25;;;;;;;;;;4978456;28;20045;-65
2021/01/18 11:03:03;;;;;;;17.08;3.97;;;;;;;;;;4965980;28;20034;-64
2021/01/18 11:05:37;;;;;;;12.63;2.42;;;;;;;;;;4997871;28;20033;-64
2021/01/18 11:08:04;;;;;;;21.00;2.72;;;;;;;;;;4979108;28;20437;-63
2021/01/18 11:10:31;;;;;;;11.07;2.35;;;;;;;;;;4986881;28;20322;-62
2021/01/18 11:13:03;;;;;;;16.20;3.03;;;;;;;;;;4995294;28;20030;-62
2021/01/18 11:15:33;;;;;;;12.43;2.20;;;;;;;;;;4995542;28;20026;-63
2021/01/18 11:17:59;;;;;;;5.03;2.00;;;;;;;;;;4996931;28;20044;-63
2021/01/18 11:20:28;;;;;;;5.93;1.90;;;;;;;;;;4989554;28;20025;-63
2021/01/18 11:22:53;;;;;;;24.15;3.03;;;;;;;;;;4985458;28;20067;-62
2021/01/18 11:25:22;;;;;;;4.53;1.70;;;;;;;;;;4996268;28;20137;-62
2021/01/18 11:27:48;;;;;;;6.95;2.45;;;;;;;;;;4992411;28;20133;-61
2021/01/18 11:30:17;;;;;;;12.20;1.98;;;;;;;;;;4993901;28;20037;-62
2021/01/18 11:32:47;;;;;;;11.18;1.90;;;;;;;;;;4990488;28;20129;-60
2021/01/18 11:35:28;;;;;;;11.15;2.42;;;;;;;;;;4983370;28;20177;-62
2021/01/18 11:37:53;;;;;;;9.27;2.35;;;;;;;;;;4995626;28;20073;-62
2021/01/18 11:40:18;;;;;;;14.55;2.67;;;;;;;;;;4993244;28;20033;-61
2021/01/18 11:42:44;;;;;;;19.52;2.63;;;;;;;;;;4982885;28;20268;-61
2021/01/18 11:45:10;;;;;;;8.48;2.00;;;;;;;;;;4978792;28;20574;-62
2021/01/18 11:47:38;;;;;;;15.43;3.30;;;;;;;;;;4961091;28;20030;-61
2021/01/18 11:50:07;;;;;;;8.13;2.50;;;;;;;;;;4994790;28;20476;-62
2021/01/18 11:52:41;;;;;;;25.83;3.20;;;;;;;;;;4979995;28;20054;-61
2021/01/18 11:55:07;;;;;;;14.57;2.90;;;;;;;;;;4978125;28;20276;-62
2021/01/18 11:57:37;;;;;;;30.33;3.13;;;;;;;;;;4991465;28;20470;-62
2021/01/18 12:00:07;;;;;;;19.38;3.00;;;;;;;;;;4975281;28;20036;-61
2021/01/18 12:02:33;;;;;;;12.50;2.63;;;;;;;;;;4980873;28;20601;-60
2021/01/18 12:04:58;;;;;;;6.47;2.22;;;;;;;;;;4966290;28;20229;-62
2021/01/18 12:07:24;;;;;;;18.65;3.17;;;;;;;;;;4971019;28;20674;-62
2021/01/18 12:09:52;;;;;;;13.48;2.20;;;;;;;;;;4992673;28;20144;-62
2021/01/18 12:12:21;;;;;;;11.00;2.45;;;;;;;;;;4993619;28;20041;-62
2021/01/18 12:14:46;;;;;;;15.15;2.45;;;;;;;;;;4977315;28;20488;-61
2021/01/18 12:17:17;;;;;;;18.33;2.20;;;;;;;;;;4993536;28;20495;-60
2021/01/18 12:19:42;;;;;;;13.15;2.20;;;;;;;;;;4988232;28;20835;-62
2021/01/18 12:22:10;;;;;;;14.93;2.83;;;;;;;;;;4981319;28;20029;-61
2021/01/18 12:24:35;;;;;;;21.55;2.70;;;;;;;;;;4983947;28;20041;-60
2021/01/18 12:27:03;;;;;;;17.40;2.38;;;;;;;;;;4982837;28;20030;-62
2021/01/18 12:29:32;;;;;;;22.45;2.05;;;;;;;;;;4999740;28;20642;-61
2021/01/18 12:31:57;;;;;;;15.98;2.72;;;;;;;;;;4979117;28;20029;-61
2021/01/18 12:34:25;;;;;;;15.82;2.03;;;;;;;;;;4985441;28;20095;-61
2021/01/18 12:36:57;;;;;;;14.90;2.50;;;;;;;;;;4995998;28;20034;-61
2021/01/18 12:39:23;;;;;;;12.93;2.40;;;;;;;;;;4995599;28;20033;-61
2021/01/18 12:41:51;;;;;;;10.13;1.88;;;;;;;;;;4971235;28;20115;-61
2021/01/18 12:44:20;;;;;;;11.07;2.05;;;;;;;;;;4998183;28;20026;-60
2021/01/18 12:46:50;;;;;;;19.45;2.28;;;;;;;;;;4996215;28;20094;-62
2021/01/18 12:49:18;;;;;;;19.25;2.67;;;;;;;;;;4991502;28;20034;-61
2021/01/18 12:51:56;;;;;;;11.93;2.03;;;;;;;;;;4998004;28;20475;-61
2021/01/18 12:54:21;;;;;;;17.58;2.63;;;;;;;;;;4975161;28;20041;-62
2021/01/18 12:56:47;;;;;;;10.60;2.35;;;;;;;;;;4997691;28;20108;-62
2021/01/18 12:59:13;;;;;;;9.77;2.25;;;;;;;;;;4980849;28;20760;-62
2021/01/18 13:01:38;;;;;;;14.30;2.25;;;;;;;;;;4993857;28;20032;-61
2021/01/18 13:04:04;;;;;;;19.92;1.95;;;;;;;;;;4978695;28;20034;-61
2021/01/18 13:06:48;;;;;;;8.55;2.08;;;;;;;;;;4996189;28;20056;-61
2021/01/18 13:09:14;;;;;;;13.98;2.40;;;;;;;;;;4978588;28;20530;-61
2021/01/18 13:11:48;;;;;;;13.85;2.53;;;;;;;;;;4992015;28;20068;-62
2021/01/18 13:14:17;;;;;;;14.70;2.38;;;;;;;;;;4996900;28;20022;-62
2021/01/18 13:16:43;;;;;;;8.98;2.08;;;;;;;;;;4996910;28;20056;-62
2021/01/18 13:19:09;;;;;;;15.90;2.42;;;;;;;;;;4997375;28;20033;-63
2021/01/18 13:21:37;;;;;;;12.48;2.03;;;;;;;;;;4995549;28;20096;-64
2021/01/18 13:24:03;;;;;;;14.02;2.90;;;;;;;;;;4995678;28;20465;-63
2021/01/18 13:26:34;;;;;;;16.17;2.20;;;;;;;;;;4997589;28;20030;-62
2021/01/18 13:29:00;;;;;;;12.57;1.75;;;;;;;;;;4997984;28;20124;-62
2021/01/18 13:31:37;;;;;;;22.35;2.35;;;;;;;;;;4980352;28;20664;-62
2021/01/18 13:34:06;;;;;;;14.68;1.98;;;;;;;;;;4973681;28;606268;-61
2021/01/18 13:36:32;;;;;;;21.75;2.17;;;;;;;;;;4994810;28;20033;-63
2021/01/18 13:38:57;;;;;;;13.82;2.20;;;;;;;;;;4995257;28;20502;-62
2021/01/18 13:41:23;;;;;;;18.00;2.20;;;;;;;;;;4992155;28;20201;-62
2021/01/18 13:43:49;;;;;;;19.02;2.63;;;;;;;;;;4979009;28;21113;-62
2021/01/18 13:46:18;;;;;;;19.80;2.17;;;;;;;;;;4996281;28;20120;-62
2021/01/18 13:48:49;;;;;;;9.75;2.05;;;;;;;;;;4997027;28;20116;-63
2021/01/18 13:51:19;;;;;;;14.38;1.52;;;;;;;;;;4997263;28;20334;-62
2021/01/18 13:53:45;;;;;;;12.43;2.00;;;;;;;;;;4995300;28;20033;-62
2021/01/18 13:56:21;;;;;;;10.95;2.00;;;;;;;;;;4996324;28;20413;-63
2021/01/18 13:58:51;;;;;;;15.10;1.77;;;;;;;;;;4998758;28;20495;-62
2021/01/18 14:01:17;;;;;;;10.45;1.75;;;;;;;;;;4997673;28;20033;-63
2021/01/18 14:04:05;;;;;;;13.00;1.55;;;;;;;;;;4994819;28;20029;-63
2021/01/18 14:06:33;;;;;;;6.05;1.65;;;;;;;;;;4995863;28;20056;-63
2021/01/18 14:09:00;;;;;;;7.38;1.58;;;;;;;;;;4997543;28;20051;-66
2021/01/18 14:11:29;;;;;;;16.98;1.60;;;;;;;;;;4991433;28;20040;-63
2021/01/18 14:13:57;;;;;;;17.27;1.80;;;;;;;;;;4986212;28;20122;-63
2021/01/18 14:16:25;;;;;;;4.78;1.50;;;;;;;;;;4977337;28;20176;-63
2021/01/18 14:18:51;;;;;;;8.38;1.60;;;;;;;;;;4998013;28;20029;-62
2021/01/18 14:21:16;;;;;;;19.83;2.15;;;;;;;;;;4996421;28;20045;-62
2021/01/18 14:23:42;;;;;;;7.97;2.05;;;;;;;;;;4991862;28;20033;-63
2021/01/18 14:26:11;;;;;;;17.20;2.08;;;;;;;;;;4975035;28;20041;-64
2021/01/18 14:28:39;;;;;;;6.07;1.50;;;;;;;;;;4994592;28;20824;-64
2021/01/18 14:31:04;;;;;;;17.15;2.38;;;;;;;;;;4984597;28;20668;-64
2021/01/18 14:33:34;;;;;;;7.72;1.80;;;;;;;;;;4998984;28;20056;-62
2021/01/18 14:36:02;;;;;;;19.75;2.75;;;;;;;;;;4999441;28;20092;-63
2021/01/18 14:38:28;;;;;;;13.90;2.17;;;;;;;;;;4998978;28;20033;-63
2021/01/18 14:40:55;;;;;;;16.60;2.05;;;;;;;;;;4997539;28;20041;-63
2021/01/18 14:43:21;;;;;;;24.58;2.30;;;;;;;;;;4998168;28;20377;-63
2021/01/18 14:45:49;;;;;;;12.00;1.90;;;;;;;;;;4980885;28;20773;-64
2021/01/18 14:48:14;;;;;;;13.32;2.00;;;;;;;;;;4995150;28;22196;-64
2021/01/18 14:50:42;;;;;;;18.30;2.22;;;;;;;;;;5000185;28;20042;-63
2021/01/18 14:53:08;;;;;;;14.02;2.72;;;;;;;;;;4972517;28;20032;-63